Time;durP1;ratioP1;P1;durP2;ratioP2;P2;SDS_P1;SDS_P2;PMS_P1;PMS_P2;Temp;Humidity;BMP_temperature;BMP_pressure;BME280_temperature;BME280_humidity;BME280_pressure;Samples;Min_cycle;Max_cycle;Signal;HPM_P1;HPM_P2
2023/03/14 00:00:49;;;;;;;;;;;6.50;70.20;;;;;;5004401;28;87881;-38
2023/03/14 00:03:15;;;;;;;;;;;6.50;70.30;;;;;;5005580;28;88922;-38
2023/03/14 00:05:40;;;;;;;;;;;6.40;70.30;;;;;;5009281;28;88687;-38
2023/03/14 00:08:06;;;;;;;;;;;6.40;70.30;;;;;;5004742;28;87395;-37
2023/03/14 00:10:31;;;;;;;;;;;6.40;71.00;;;;;;5006765;28;88149;-38
2023/03/14 00:12:57;;;;;;;;;;;6.40;70.20;;;;;;5018929;28;87177;-37
2023/03/14 00:15:22;;;;;;;;;;;6.40;70.30;;;;;;5018437;28;88924;-37
2023/03/14 00:17:48;;;;;;;;;;;6.40;70.30;;;;;;5018002;28;88097;-38
2023/03/14 00:20:13;;;;;;;;;;;6.40;70.30;;;;;;5019568;28;87478;-37
2023/03/14 00:22:40;;;;;;;;;;;6.40;70.30;;;;;;5004771;28;88788;-38
2023/03/14 00:25:06;;;;;;;;;;;6.30;70.20;;;;;;5004380;28;89899;-37
2023/03/14 00:27:32;;;;;;;;;;;6.30;70.40;;;;;;5003344;28;87129;-37
2023/03/14 00:29:58;;;;;;;;;;;6.30;70.30;;;;;;5003883;28;89210;-38
2023/03/14 00:32:23;;;;;;;;;;;6.30;70.30;;;;;;5006404;28;87902;-38
2023/03/14 00:34:49;;;;;;;;;;;6.30;70.30;;;;;;5012104;28;88170;-38
2023/03/14 00:37:15;;;;;;;;;;;6.30;70.20;;;;;;5011944;28;89622;-38
2023/03/14 00:39:40;;;;;;;;;;;6.30;70.30;;;;;;5005213;28;88195;-38
2023/03/14 00:42:06;;;;;;;;;;;6.30;70.20;;;;;;5017183;28;89967;-37
2023/03/14 00:44:31;;;;;;;;;;;6.30;70.20;;;;;;5015365;28;89534;-37
2023/03/14 00:46:57;;;;;;;;;;;6.30;70.30;;;;;;5011786;28;87546;-37
2023/03/14 00:49:23;;;;;;;;;;;6.30;70.30;;;;;;5018399;28;89100;-38
2023/03/14 00:51:48;;;;;;;;;;;6.30;70.30;;;;;;5003173;28;90184;-38
2023/03/14 00:54:14;;;;;;;;;;;6.20;70.20;;;;;;5006065;28;87249;-38
2023/03/14 00:56:39;;;;;;;;;;;6.20;70.90;;;;;;5003478;28;89696;-37
2023/03/14 00:59:04;;;;;;;;;;;6.20;70.30;;;;;;5003406;28;87712;-38
2023/03/14 01:01:30;;;;;;;;;;;6.20;70.20;;;;;;5003264;28;88828;-37
2023/03/14 01:03:56;;;;;;;;;;;6.20;70.30;;;;;;5002183;28;90912;-38
2023/03/14 01:06:23;;;;;;;;;;;6.20;70.30;;;;;;5014915;28;87156;-38
2023/03/14 01:08:48;;;;;;;;;;;6.20;70.30;;;;;;5017124;28;88521;-38
2023/03/14 01:11:15;;;;;;;;;;;6.20;70.30;;;;;;5003429;28;87974;-38
2023/03/14 01:13:41;;;;;;;;;;;6.20;70.30;;;;;;5003314;28;88060;-38
2023/03/14 01:16:08;;;;;;;;;;;6.10;70.20;;;;;;5005497;28;88569;-38
2023/03/14 01:18:35;;;;;;;;;;;6.10;70.30;;;;;;5016538;28;87855;-38
2023/03/14 01:21:01;;;;;;;;;;;6.10;70.40;;;;;;5003347;28;88737;-37
2023/03/14 01:23:26;;;;;;;;;;;6.10;70.30;;;;;;5016157;28;88689;-38
2023/03/14 01:25:52;;;;;;;;;;;6.10;70.30;;;;;;5019960;28;87185;-38
2023/03/14 01:28:17;;;;;;;;;;;6.10;70.00;;;;;;5013404;28;88110;-38
2023/03/14 01:30:43;;;;;;;;;;;6.10;70.80;;;;;;5017736;28;89892;-37
2023/03/14 01:33:08;;;;;;;;;;;6.10;70.30;;;;;;5019102;28;87661;-37
2023/03/14 01:35:34;;;;;;;;;;;6.10;70.30;;;;;;5018528;28;88672;-38
2023/03/14 01:37:59;;;;;;;;;;;6.10;70.10;;;;;;5019917;28;89495;-37
2023/03/14 01:40:25;;;;;;;;;;;6.00;70.30;;;;;;5016778;28;88554;-38
2023/03/14 01:43:06;;;;;;;;;;;6.00;70.20;;;;;;5006917;28;89789;-38
2023/03/14 01:45:50;;;;;;;;;;;6.00;70.30;;;;;;5003375;28;86975;-38
2023/03/14 01:48:16;;;;;;;;;;;6.00;70.20;;;;;;5018066;28;88024;-38
2023/03/14 01:50:41;;;;;;;;;;;6.00;70.40;;;;;;5016018;28;88710;-38
2023/03/14 01:53:07;;;;;;;;;;;6.00;70.40;;;;;;5001925;28;88158;-37
2023/03/14 01:55:33;;;;;;;;;;;6.00;70.20;;;;;;5002640;28;90122;-37
2023/03/14 01:58:00;;;;;;;;;;;5.90;70.20;;;;;;5002515;28;88199;-38
2023/03/14 02:00:25;;;;;;;;;;;5.90;70.40;;;;;;5009340;28;87346;-37
2023/03/14 02:03:06;;;;;;;;;;;5.90;70.10;;;;;;5014964;28;88743;-37
2023/03/14 02:05:34;;;;;;;;;;;5.90;70.10;;;;;;5019742;28;87137;-37
2023/03/14 02:08:01;;;;;;;;;;;5.90;70.30;;;;;;5022012;28;88725;-37
2023/03/14 02:10:28;;;;;;;;;;;5.90;70.10;;;;;;5010140;28;87476;-38
2023/03/14 02:12:55;;;;;;;;;;;5.90;70.20;;;;;;5005914;28;87591;-37
2023/03/14 02:15:21;;;;;;;;;;;5.90;70.30;;;;;;5005849;28;88800;-37
2023/03/14 02:17:47;;;;;;;;;;;5.80;70.30;;;;;;5018705;28;89795;-37
2023/03/14 02:20:24;;;;;;;;;;;5.80;70.30;;;;;;5024298;28;87062;-38
2023/03/14 02:22:50;;;;;;;;;;;5.80;70.20;;;;;;5010560;28;89785;-38
2023/03/14 02:25:25;;;;;;;;;;;5.80;70.30;;;;;;5020243;28;87153;-37
2023/03/14 02:27:50;;;;;;;;;;;5.80;70.10;;;;;;5018041;28;88713;-37
2023/03/14 02:30:17;;;;;;;;;;;5.80;70.20;;;;;;5009580;28;89540;-38
2023/03/14 02:32:45;;;;;;;;;;;5.80;70.30;;;;;;5020310;28;87267;-38
2023/03/14 02:35:11;;;;;;;;;;;5.80;70.30;;;;;;5006195;28;87712;-37
2023/03/14 02:37:55;;;;;;;;;;;5.80;70.20;;;;;;5018321;28;87787;-37
2023/03/14 02:40:20;;;;;;;;;;;5.70;70.10;;;;;;5011782;28;87273;-37
2023/03/14 02:42:46;;;;;;;;;;;5.70;70.30;;;;;;5018576;28;88087;-38
2023/03/14 02:45:11;;;;;;;;;;;5.80;70.30;;;;;;5020687;28;87326;-38
2023/03/14 02:47:41;;;;;;;;;;;5.70;70.10;;;;;;5019991;28;87900;-37
2023/03/14 02:50:12;;;;;;;;;;;5.70;70.30;;;;;;5016217;28;89566;-38
2023/03/14 02:52:38;;;;;;;;;;;5.70;70.30;;;;;;5005377;28;87235;-37
2023/03/14 02:55:04;;;;;;;;;;;5.70;70.30;;;;;;5005140;28;88795;-37
2023/03/14 02:57:29;;;;;;;;;;;5.70;70.30;;;;;;5004884;28;91365;-37
2023/03/14 02:59:58;;;;;;;;;;;5.70;70.30;;;;;;5008045;28;86468;-38
2023/03/14 03:02:23;;;;;;;;;;;5.70;70.20;;;;;;5020564;28;89797;-38
2023/03/14 03:04:49;;;;;;;;;;;5.60;70.40;;;;;;5007780;28;89682;-38
2023/03/14 03:07:14;;;;;;;;;;;5.70;70.30;;;;;;5009660;28;88131;-37
2023/03/14 03:09:40;;;;;;;;;;;5.60;70.70;;;;;;5017109;28;89038;-37
2023/03/14 03:12:05;;;;;;;;;;;5.60;70.00;;;;;;5009444;28;87234;-37
2023/03/14 03:14:31;;;;;;;;;;;5.60;70.20;;;;;;5020430;28;89268;-38
2023/03/14 03:16:56;;;;;;;;;;;5.60;70.30;;;;;;5008778;28;89337;-38
2023/03/14 03:19:22;;;;;;;;;;;5.60;70.30;;;;;;5004819;28;87821;-38
2023/03/14 03:21:48;;;;;;;;;;;5.60;70.10;;;;;;5007691;28;89530;-37
2023/03/14 03:24:13;;;;;;;;;;;5.50;70.20;;;;;;5019129;28;89037;-37
2023/03/14 03:26:39;;;;;;;;;;;5.60;70.30;;;;;;5019390;28;87083;-38
2023/03/14 03:29:04;;;;;;;;;;;5.50;70.10;;;;;;5020506;28;88611;-37
2023/03/14 03:31:30;;;;;;;;;;;5.60;70.30;;;;;;5019465;28;88108;-37
2023/03/14 03:33:56;;;;;;;;;;;5.50;70.10;;;;;;5019635;28;89892;-38
2023/03/14 03:36:22;;;;;;;;;;;5.50;70.20;;;;;;5004184;28;88418;-38
2023/03/14 03:38:48;;;;;;;;;;;5.50;70.20;;;;;;5004795;28;87150;-38
2023/03/14 03:41:14;;;;;;;;;;;5.50;70.30;;;;;;5004907;28;88106;-38
2023/03/14 03:43:39;;;;;;;;;;;5.50;70.10;;;;;;5003976;28;89443;-37
2023/03/14 03:46:05;;;;;;;;;;;5.50;70.10;;;;;;5004650;28;87590;-37
2023/03/14 03:48:31;;;;;;;;;;;5.50;70.20;;;;;;5011584;28;88899;-37
2023/03/14 03:50:56;;;;;;;;;;;5.40;70.20;;;;;;5007829;28;87149;-37
2023/03/14 03:53:22;;;;;;;;;;;5.40;70.20;;;;;;5004614;28;88423;-38
2023/03/14 03:55:48;;;;;;;;;;;5.40;70.20;;;;;;5003359;28;90513;-37
2023/03/14 03:58:13;;;;;;;;;;;5.40;70.10;;;;;;5020106;28;88164;-37
2023/03/14 04:00:39;;;;;;;;;;;5.40;70.20;;;;;;5011761;28;87290;-37
2023/03/14 04:03:04;;;;;;;;;;;5.40;70.20;;;;;;5005912;28;89398;-37
2023/03/14 04:05:30;;;;;;;;;;;5.40;70.10;;;;;;5003939;28;87111;-37
2023/03/14 04:07:55;;;;;;;;;;;5.40;70.20;;;;;;5006822;28;88817;-37
2023/03/14 04:10:21;;;;;;;;;;;5.40;70.20;;;;;;5004243;28;87272;-37
2023/03/14 04:12:46;;;;;;;;;;;5.40;70.20;;;;;;5005533;28;87241;-37
2023/03/14 04:15:12;;;;;;;;;;;5.40;70.20;;;;;;5008404;28;88182;-38
2023/03/14 04:17:37;;;;;;;;;;;5.40;70.00;;;;;;5013923;28;87171;-37
2023/03/14 04:20:04;;;;;;;;;;;5.30;70.20;;;;;;5003563;28;88611;-37
2023/03/14 04:22:29;;;;;;;;;;;5.30;70.00;;;;;;5003501;28;89473;-37
2023/03/14 04:24:55;;;;;;;;;;;5.30;70.10;;;;;;5004166;28;87741;-37
2023/03/14 04:27:20;;;;;;;;;;;5.20;70.00;;;;;;5002998;28;88947;-37
2023/03/14 04:29:46;;;;;;;;;;;5.30;70.30;;;;;;5022610;28;89771;-37
2023/03/14 04:32:11;;;;;;;;;;;5.20;70.00;;;;;;5016941;28;88541;-37
2023/03/14 04:34:37;;;;;;;;;;;5.20;70.20;;;;;;5011506;28;88917;-37
2023/03/14 04:37:02;;;;;;;;;;;5.20;70.20;;;;;;5021272;28;86544;-38
2023/03/14 04:39:28;;;;;;;;;;;5.20;70.10;;;;;;5020243;28;87306;-37
2023/03/14 04:41:54;;;;;;;;;;;5.20;70.20;;;;;;5017824;28;89600;-37
2023/03/14 04:44:19;;;;;;;;;;;5.20;70.10;;;;;;5003427;28;88902;-37
2023/03/14 04:46:45;;;;;;;;;;;5.20;70.20;;;;;;5003466;28;88847;-38
2023/03/14 04:49:10;;;;;;;;;;;5.20;70.10;;;;;;5003072;28;89885;-37
2023/03/14 04:51:35;;;;;;;;;;;5.20;70.10;;;;;;5009030;28;87980;-38
2023/03/14 04:54:01;;;;;;;;;;;5.20;70.10;;;;;;5003307;28;88986;-37
2023/03/14 04:56:27;;;;;;;;;;;5.20;70.00;;;;;;5008286;28;87204;-37
2023/03/14 04:58:53;;;;;;;;;;;5.10;70.10;;;;;;5003504;28;88813;-37
2023/03/14 05:01:18;;;;;;;;;;;5.10;70.00;;;;;;5003330;28;88954;-37
2023/03/14 05:03:44;;;;;;;;;;;5.10;70.00;;;;;;5003533;28;87259;-37
2023/03/14 05:06:09;;;;;;;;;;;5.10;70.20;;;;;;5019107;28;88991;-38
2023/03/14 05:08:35;;;;;;;;;;;5.10;70.10;;;;;;5002068;28;91331;-37
2023/03/14 05:11:00;;;;;;;;;;;5.10;70.00;;;;;;5003155;28;87082;-37
2023/03/14 05:13:26;;;;;;;;;;;5.00;69.90;;;;;;5005563;28;89001;-37
2023/03/14 05:15:52;;;;;;;;;;;5.10;70.10;;;;;;5003090;28;87887;-37
2023/03/14 05:18:18;;;;;;;;;;;5.10;69.90;;;;;;5003277;28;87877;-37
2023/03/14 05:20:43;;;;;;;;;;;5.10;69.80;;;;;;5002732;28;89153;-37
2023/03/14 05:23:09;;;;;;;;;;;5.00;69.70;;;;;;5002834;28;87198;-38
2023/03/14 05:25:34;;;;;;;;;;;5.00;69.70;;;;;;5003434;28;89313;-37
2023/03/14 05:28:00;;;;;;;;;;;5.00;69.70;;;;;;5002173;28;89837;-38
2023/03/14 05:30:27;;;;;;;;;;;5.00;69.70;;;;;;5002909;28;87430;-38
2023/03/14 05:32:53;;;;;;;;;;;5.00;69.80;;;;;;5002169;28;89007;-38
2023/03/14 05:35:19;;;;;;;;;;;5.00;69.80;;;;;;5005227;28;89626;-37
2023/03/14 05:37:44;;;;;;;;;;;5.00;69.70;;;;;;5002705;28;88490;-37
2023/03/14 05:40:10;;;;;;;;;;;5.00;69.50;;;;;;5013123;28;88386;-38
2023/03/14 05:42:35;;;;;;;;;;;5.00;69.50;;;;;;5018582;28;87408;-37
2023/03/14 05:45:01;;;;;;;;;;;5.00;69.50;;;;;;5018711;28;89330;-38
2023/03/14 05:47:26;;;;;;;;;;;5.00;69.60;;;;;;5020250;28;89455;-38
2023/03/14 05:49:52;;;;;;;;;;;4.90;69.80;;;;;;5019591;28;86272;-37
2023/03/14 05:52:17;;;;;;;;;;;4.90;69.70;;;;;;5014090;28;88455;-37
2023/03/14 05:54:43;;;;;;;;;;;4.90;69.70;;;;;;5002004;28;88412;-37
2023/03/14 05:57:08;;;;;;;;;;;4.90;69.70;;;;;;5004755;28;88031;-37
2023/03/14 05:59:34;;;;;;;;;;;4.90;69.80;;;;;;5001941;28;89445;-37
2023/03/14 06:01:59;;;;;;;;;;;4.90;69.70;;;;;;5002627;28;87084;-38
2023/03/14 06:04:25;;;;;;;;;;;4.90;69.70;;;;;;5007525;28;88717;-37
2023/03/14 06:06:50;;;;;;;;;;;4.90;69.80;;;;;;5002078;28;89605;-37
2023/03/14 06:09:16;;;;;;;;;;;4.90;69.80;;;;;;5002448;28;87245;-37
2023/03/14 06:11:41;;;;;;;;;;;4.90;69.80;;;;;;5002261;28;88471;-37
2023/03/14 06:14:07;;;;;;;;;;;4.90;69.90;;;;;;5018433;28;87200;-37
2023/03/14 06:16:33;;;;;;;;;;;4.90;69.80;;;;;;5019055;28;86982;-38
2023/03/14 06:18:58;;;;;;;;;;;4.80;69.90;;;;;;5018718;28;88366;-37
2023/03/14 06:21:24;;;;;;;;;;;4.80;69.80;;;;;;5019474;28;88007;-37
2023/03/14 06:23:50;;;;;;;;;;;4.80;69.90;;;;;;5017664;28;89655;-37
2023/03/14 06:26:15;;;;;;;;;;;4.90;70.00;;;;;;5011772;28;89994;-37
2023/03/14 06:28:41;;;;;;;;;;;4.80;69.80;;;;;;5017854;28;87061;-37
2023/03/14 06:31:06;;;;;;;;;;;4.80;69.80;;;;;;5019891;28;89664;-38
2023/03/14 06:33:32;;;;;;;;;;;4.90;69.90;;;;;;5019713;28;88026;-37
2023/03/14 06:35:57;;;;;;;;;;;4.90;69.80;;;;;;5017119;28;87329;-37
2023/03/14 06:38:23;;;;;;;;;;;4.80;69.90;;;;;;5020984;28;89073;-37
2023/03/14 06:40:48;;;;;;;;;;;4.90;70.00;;;;;;5020629;28;87107;-37
2023/03/14 06:43:14;;;;;;;;;;;4.80;69.80;;;;;;5019393;28;88702;-37
2023/03/14 06:45:39;;;;;;;;;;;4.90;69.80;;;;;;5016230;28;90830;-37
2023/03/14 06:48:05;;;;;;;;;;;4.90;69.70;;;;;;5019209;28;87118;-37
2023/03/14 06:50:31;;;;;;;;;;;4.90;69.90;;;;;;5018865;28;89575;-37
2023/03/14 06:52:56;;;;;;;;;;;4.90;69.80;;;;;;5020218;28;89418;-37
2023/03/14 06:55:22;;;;;;;;;;;4.80;70.00;;;;;;5022814;28;87172;-38
2023/03/14 06:57:47;;;;;;;;;;;4.80;69.90;;;;;;5022270;28;88986;-38
2023/03/14 07:00:13;;;;;;;;;;;4.90;69.80;;;;;;5008124;28;87339;-37
2023/03/14 07:02:39;;;;;;;;;;;4.80;69.90;;;;;;5005743;28;89682;-37
2023/03/14 07:05:05;;;;;;;;;;;4.80;69.90;;;;;;5005019;28;88047;-37
2023/03/14 07:07:30;;;;;;;;;;;4.80;70.00;;;;;;5005197;28;87964;-37
2023/03/14 07:09:55;;;;;;;;;;;4.80;70.00;;;;;;5004540;28;89081;-37
2023/03/14 07:12:21;;;;;;;;;;;4.80;70.00;;;;;;5004853;28;89224;-37
2023/03/14 07:14:47;;;;;;;;;;;4.80;70.10;;;;;;5019338;28;87843;-37
2023/03/14 07:17:12;;;;;;;;;;;4.80;70.30;;;;;;5005063;28;89488;-37
2023/03/14 07:19:38;;;;;;;;;;;4.80;70.30;;;;;;5007019;28;89551;-37
2023/03/14 07:22:06;;;;;;;;;;;4.80;70.20;;;;;;5022155;28;87808;-37
2023/03/14 07:24:31;;;;;;;;;;;4.80;70.30;;;;;;5005747;28;89494;-37
2023/03/14 07:26:57;;;;;;;;;;;4.80;70.20;;;;;;5004787;28;86531;-38
2023/03/14 07:29:23;;;;;;;;;;;4.80;70.30;;;;;;5004783;28;88247;-37
2023/03/14 07:31:48;;;;;;;;;;;4.80;70.30;;;;;;5004569;28;89263;-37
2023/03/14 07:34:14;;;;;;;;;;;4.80;70.40;;;;;;5008710;28;88846;-38
2023/03/14 07:36:39;;;;;;;;;;;4.80;70.40;;;;;;5004633;28;90142;-37
2023/03/14 07:39:05;;;;;;;;;;;4.80;70.20;;;;;;5004267;28;88480;-37
2023/03/14 07:41:30;;;;;;;;;;;4.80;70.20;;;;;;5017160;28;87174;-37
2023/03/14 07:43:56;;;;;;;;;;;4.80;70.30;;;;;;5022440;28;88791;-37
2023/03/14 07:46:22;;;;;;;;;;;4.80;70.30;;;;;;5022239;28;87408;-37
2023/03/14 07:48:47;;;;;;;;;;;4.80;70.40;;;;;;5010103;28;89202;-37
2023/03/14 07:51:12;;;;;;;;;;;4.80;70.50;;;;;;5004656;28;88891;-37
2023/03/14 07:53:39;;;;;;;;;;;4.80;70.40;;;;;;5004292;28;87155;-38
2023/03/14 07:56:04;;;;;;;;;;;4.80;70.50;;;;;;5004089;28;88871;-37
2023/03/14 07:58:30;;;;;;;;;;;4.80;70.60;;;;;;5003061;28;91901;-38
2023/03/14 08:00:58;;;;;;;;;;;4.80;70.50;;;;;;5015401;28;87255;-37
2023/03/14 08:03:23;;;;;;;;;;;4.80;70.50;;;;;;5003464;28;88745;-37
2023/03/14 08:05:50;;;;;;;;;;;4.80;70.50;;;;;;5025028;28;89649;-37
2023/03/14 08:08:15;;;;;;;;;;;4.80;70.50;;;;;;5019189;28;88939;-37
2023/03/14 08:10:41;;;;;;;;;;;4.80;70.60;;;;;;5007998;28;89181;-36
2023/03/14 08:13:07;;;;;;;;;;;4.80;70.50;;;;;;5004398;28;87862;-38
2023/03/14 08:15:33;;;;;;;;;;;4.90;70.60;;;;;;5004395;28;89567;-38
2023/03/14 08:17:58;;;;;;;;;;;4.80;70.50;;;;;;5003680;28;89652;-37
2023/03/14 08:20:25;;;;;;;;;;;4.80;70.50;;;;;;5003933;28;87046;-37
2023/03/14 08:22:51;;;;;;;;;;;4.80;70.60;;;;;;5003132;28;89357;-38
2023/03/14 08:25:16;;;;;;;;;;;4.90;70.70;;;;;;5006422;28;89549;-38
2023/03/14 08:27:42;;;;;;;;;;;4.90;70.70;;;;;;5003181;28;88804;-37
2023/03/14 08:30:10;;;;;;;;;;;4.90;70.70;;;;;;5003406;28;89370;-37
2023/03/14 08:32:35;;;;;;;;;;;4.80;70.70;;;;;;5011188;28;87883;-38
2023/03/14 08:35:01;;;;;;;;;;;4.80;70.70;;;;;;5003608;28;87384;-37
2023/03/14 08:37:27;;;;;;;;;;;4.90;70.70;;;;;;5003681;28;88041;-38
2023/03/14 08:39:52;;;;;;;;;;;4.90;70.70;;;;;;5004515;28;87135;-37
2023/03/14 08:42:18;;;;;;;;;;;4.90;70.80;;;;;;5003752;28;87170;-37
2023/03/14 08:44:43;;;;;;;;;;;4.80;71.00;;;;;;5003029;28;89578;-37
2023/03/14 08:47:09;;;;;;;;;;;4.80;71.00;;;;;;5006063;28;87988;-37
2023/03/14 08:49:34;;;;;;;;;;;4.80;71.20;;;;;;5018136;28;88210;-37
2023/03/14 08:52:02;;;;;;;;;;;4.80;71.30;;;;;;5019439;28;87144;-37
2023/03/14 08:54:27;;;;;;;;;;;4.80;71.30;;;;;;5011415;28;88268;-38
2023/03/14 08:56:53;;;;;;;;;;;4.90;71.20;;;;;;5003140;28;89481;-37
2023/03/14 08:59:18;;;;;;;;;;;4.90;71.10;;;;;;5018302;28;87757;-37
2023/03/14 09:01:44;;;;;;;;;;;4.90;71.00;;;;;;5017106;28;88826;-37
2023/03/14 09:04:09;;;;;;;;;;;4.90;71.00;;;;;;5012956;28;89022;-37
2023/03/14 09:06:35;;;;;;;;;;;5.00;70.90;;;;;;5004311;28;87139;-37
2023/03/14 09:09:01;;;;;;;;;;;4.90;70.90;;;;;;5023075;28;87950;-37
2023/03/14 09:11:26;;;;;;;;;;;4.90;70.90;;;;;;5008004;28;88654;-38
2023/03/14 09:13:52;;;;;;;;;;;5.00;70.90;;;;;;5003547;28;88307;-37
2023/03/14 09:16:17;;;;;;;;;;;5.00;70.80;;;;;;5002822;28;89547;-37
2023/03/14 09:18:43;;;;;;;;;;;5.00;70.70;;;;;;5003316;28;87061;-37
2023/03/14 09:21:08;;;;;;;;;;;5.00;70.70;;;;;;5003572;28;89501;-38
2023/03/14 09:23:34;;;;;;;;;;;5.10;70.70;;;;;;5002620;28;89984;-37
2023/03/14 09:25:59;;;;;;;;;;;5.00;70.60;;;;;;5017926;28;87105;-38
2023/03/14 09:28:25;;;;;;;;;;;5.00;70.90;;;;;;5018569;28;88451;-38
2023/03/14 09:30:51;;;;;;;;;;;5.10;70.80;;;;;;5021071;28;89236;-38
2023/03/14 09:33:17;;;;;;;;;;;5.10;70.90;;;;;;5014822;28;88596;-37
2023/03/14 09:35:42;;;;;;;;;;;5.10;70.90;;;;;;5008482;28;90299;-37
2023/03/14 09:38:08;;;;;;;;;;;5.10;71.00;;;;;;5005096;28;87228;-37
2023/03/14 09:40:35;;;;;;;;;;;5.10;71.00;;;;;;5018330;28;89079;-37
2023/03/14 09:43:00;;;;;;;;;;;5.10;71.10;;;;;;5003405;28;87984;-37
2023/03/14 09:45:28;;;;;;;;;;;5.10;71.10;;;;;;5002606;28;87115;-38
2023/03/14 09:47:55;;;;;;;;;;;5.10;71.10;;;;;;5017792;28;88787;-38
2023/03/14 09:50:21;;;;;;;;;;;5.10;71.10;;;;;;5016282;28;89667;-37
2023/03/14 09:52:47;;;;;;;;;;;5.20;71.20;;;;;;5022623;28;86490;-38
2023/03/14 09:55:15;;;;;;;;;;;5.20;71.00;;;;;;5017737;28;88526;-38
2023/03/14 09:57:40;;;;;;;;;;;5.20;71.00;;;;;;5002641;28;87740;-38
2023/03/14 10:00:20;;;;;;;;;;;5.20;71.00;;;;;;5001955;28;88492;-37
2023/03/14 10:03:06;;;;;;;;;;;5.20;71.10;;;;;;5002260;28;89759;-37
2023/03/14 10:05:31;;;;;;;;;;;5.30;71.10;;;;;;4990637;28;87618;-37
2023/03/14 10:07:57;;;;;;;;;;;5.30;71.00;;;;;;5002684;28;87741;-38
2023/03/14 10:10:24;;;;;;;;;;;5.30;71.00;;;;;;5002275;28;87982;-37
2023/03/14 10:13:12;;;;;;;;;;;5.30;71.00;;;;;;5018390;28;87474;-38
2023/03/14 10:15:38;;;;;;;;;;;5.30;70.90;;;;;;4999011;28;89169;-38
2023/03/14 10:18:11;;;;;;;;;;;5.40;71.00;;;;;;5016937;28;87307;-37
2023/03/14 10:20:38;;;;;;;;;;;5.40;71.00;;;;;;5017882;28;88201;-38
2023/03/14 10:23:13;;;;;;;;;;;5.40;71.00;;;;;;5006663;28;89329;-38
2023/03/14 10:25:40;;;;;;;;;;;5.40;71.10;;;;;;5008842;28;88694;-38
2023/03/14 10:28:11;;;;;;;;;;;5.40;71.10;;;;;;5005356;28;89911;-37
2023/03/14 10:30:46;;;;;;;;;;;5.50;71.10;;;;;;5008139;28;89469;-37
2023/03/14 10:33:11;;;;;;;;;;;5.50;71.10;;;;;;5005788;28;87139;-38
2023/03/14 10:35:37;;;;;;;;;;;5.50;71.10;;;;;;5008063;28;88475;-38
2023/03/14 10:38:03;;;;;;;;;;;5.50;71.20;;;;;;5019473;28;87205;-37
2023/03/14 10:40:39;;;;;;;;;;;5.50;71.10;;;;;;5006096;28;88172;-38
2023/03/14 10:43:06;;;;;;;;;;;5.50;71.10;;;;;;5015097;28;88691;-38
2023/03/14 10:45:45;;;;;;;;;;;5.60;71.20;;;;;;5017081;28;87181;-37
2023/03/14 10:48:13;;;;;;;;;;;5.60;71.20;;;;;;5020216;28;88690;-37
2023/03/14 10:50:47;;;;;;;;;;;5.60;71.30;;;;;;5016285;28;90539;-37
2023/03/14 10:53:16;;;;;;;;;;;5.60;71.30;;;;;;5008274;28;87224;-37
2023/03/14 10:55:44;;;;;;;;;;;5.70;71.40;;;;;;5014726;28;88693;-37
2023/03/14 10:58:19;;;;;;;;;;;5.70;71.30;;;;;;5007939;28;88880;-37
2023/03/14 11:00:47;;;;;;;;;;;5.70;71.30;;;;;;5019625;28;88523;-37
2023/03/14 11:03:14;;;;;;;;;;;5.70;71.20;;;;;;5017532;28;88667;-37
2023/03/14 11:05:45;;;;;;;;;;;5.70;71.30;;;;;;5013150;28;87650;-37
2023/03/14 11:08:13;;;;;;;;;;;5.70;71.20;;;;;;5009223;28;88532;-38
2023/03/14 11:10:42;;;;;;;;;;;5.80;71.30;;;;;;5006395;28;89401;-37
2023/03/14 11:13:37;;;;;;;;;;;5.80;71.20;;;;;;5020736;28;88053;-38
2023/03/14 11:16:21;;;;;;;;;;;5.90;71.20;;;;;;5007058;28;88644;-37
2023/03/14 11:19:05;;;;;;;;;;;5.90;71.10;;;;;;5018640;28;89247;-37
2023/03/14 11:21:48;;;;;;;;;;;5.90;71.10;;;;;;5009021;28;87994;-37
2023/03/14 11:24:14;;;;;;;;;;;5.90;71.10;;;;;;5004800;28;89602;-38
2023/03/14 11:26:55;;;;;;;;;;;5.90;71.10;;;;;;5019114;28;87356;-37
2023/03/14 11:29:20;;;;;;;;;;;6.00;71.20;;;;;;5018046;28;89189;-37
2023/03/14 11:31:46;;;;;;;;;;;6.00;71.10;;;;;;5004530;28;88331;-37
2023/03/14 11:34:17;;;;;;;;;;;6.00;71.10;;;;;;5005180;28;87745;-38
2023/03/14 11:36:43;;;;;;;;;;;6.10;71.00;;;;;;5013849;28;88098;-38
2023/03/14 11:39:12;;;;;;;;;;;6.10;71.20;;;;;;5020148;28;89321;-38
2023/03/14 11:41:40;;;;;;;;;;;6.10;71.10;;;;;;5004154;28;88787;-38
2023/03/14 11:44:44;;;;;;;;;;;6.10;71.20;;;;;;5007296;28;88287;-38
2023/03/14 11:47:09;;;;;;;;;;;6.10;71.10;;;;;;4971296;28;87147;-37
2023/03/14 11:49:35;;;;;;;;;;;6.10;71.20;;;;;;4962736;28;88903;-38
2023/03/14 11:52:04;;;;;;;;;;;6.20;71.20;;;;;;4985465;28;87993;-37
2023/03/14 11:54:29;;;;;;;;;;;6.20;71.10;;;;;;5010902;28;87860;-38
2023/03/14 11:56:57;;;;;;;;;;;6.30;71.10;;;;;;5004359;28;88506;-38
2023/03/14 11:59:28;;;;;;;;;;;6.30;71.10;;;;;;5004506;28;87506;-38
2023/03/14 12:01:57;;;;;;;;;;;6.30;71.00;;;;;;5020233;28;87157;-38
2023/03/14 12:04:22;;;;;;;;;;;6.30;71.10;;;;;;5020078;28;89225;-38
2023/03/14 12:06:49;;;;;;;;;;;6.40;71.10;;;;;;5022659;28;90245;-38
2023/03/14 12:09:16;;;;;;;;;;;6.40;71.10;;;;;;5019051;28;89607;-38
2023/03/14 12:11:52;;;;;;;;;;;6.40;71.20;;;;;;5018667;28;89601;-37
2023/03/14 12:14:21;;;;;;;;;;;6.40;71.10;;;;;;5017497;28;87900;-37
2023/03/14 12:16:50;;;;;;;;;;;6.40;71.20;;;;;;5004294;28;88777;-38
2023/03/14 12:19:18;;;;;;;;;;;6.50;71.20;;;;;;5015237;28;89222;-38
2023/03/14 12:21:49;;;;;;;;;;;6.50;71.20;;;;;;5022054;28;87807;-38
2023/03/14 12:24:17;;;;;;;;;;;6.50;71.10;;;;;;5014054;28;88930;-37
2023/03/14 12:26:45;;;;;;;;;;;6.60;71.10;;;;;;5002906;28;88088;-38
2023/03/14 12:29:14;;;;;;;;;;;6.60;71.10;;;;;;5006779;28;87362;-38
2023/03/14 12:31:45;;;;;;;;;;;6.60;71.20;;;;;;5002736;28;90337;-38
2023/03/14 12:34:10;;;;;;;;;;;6.70;71.10;;;;;;5003884;28;87434;-38
2023/03/14 12:36:49;;;;;;;;;;;6.70;71.20;;;;;;5003843;28;89062;-38
2023/03/14 12:39:17;;;;;;;;;;;6.70;71.20;;;;;;5007998;28;88018;-38
2023/03/14 12:41:46;;;;;;;;;;;6.70;71.10;;;;;;5019716;28;87193;-38
2023/03/14 12:44:27;;;;;;;;;;;6.80;71.20;;;;;;5020066;28;88996;-38
2023/03/14 12:46:52;;;;;;;;;;;6.80;71.20;;;;;;5016230;28;89873;-38
2023/03/14 12:49:18;;;;;;;;;;;6.80;71.10;;;;;;5009929;28;86455;-37
2023/03/14 12:51:44;;;;;;;;;;;6.90;71.20;;;;;;5011185;28;89702;-38
2023/03/14 12:54:39;;;;;;;;;;;6.90;71.10;;;;;;5020248;28;87520;-37
2023/03/14 12:57:15;;;;;;;;;;;6.90;71.10;;;;;;4965015;28;88293;-38
2023/03/14 12:59:50;;;;;;;;;;;6.90;71.00;;;;;;5002773;28;88639;-38
2023/03/14 13:02:15;;;;;;;;;;;7.00;71.20;;;;;;5007174;28;87956;-37
2023/03/14 13:04:45;;;;;;;;;;;7.00;71.20;;;;;;5003410;28;88630;-38
2023/03/14 13:07:12;;;;;;;;;;;7.00;71.10;;;;;;5016137;28;89194;-38
2023/03/14 13:09:54;;;;;;;;;;;7.10;71.10;;;;;;5018231;28;87220;-38
2023/03/14 13:12:23;;;;;;;;;;;7.10;71.10;;;;;;5005687;28;88017;-38
2023/03/14 13:14:51;;;;;;;;;;;7.10;71.10;;;;;;5003580;28;86467;-38
2023/03/14 13:17:24;;;;;;;;;;;7.20;71.50;;;;;;5003144;28;88206;-38
2023/03/14 13:19:55;;;;;;;;;;;7.20;71.20;;;;;;5014027;28;89466;-38
2023/03/14 13:22:25;;;;;;;;;;;7.20;71.10;;;;;;5013299;28;88884;-38
2023/03/14 13:24:58;;;;;;;;;;;7.20;71.10;;;;;;5007951;28;90386;-38
2023/03/14 13:27:25;;;;;;;;;;;7.30;71.10;;;;;;5016106;28;90643;-38
2023/03/14 13:29:50;;;;;;;;;;;7.30;71.20;;;;;;5013337;28;87847;-38
2023/03/14 13:32:17;;;;;;;;;;;7.30;71.20;;;;;;5003200;28;88779;-38
2023/03/14 13:34:43;;;;;;;;;;;7.40;71.30;;;;;;5010514;28;89033;-38
2023/03/14 13:37:20;;;;;;;;;;;7.40;71.60;;;;;;5002902;28;89113;-38
2023/03/14 13:39:49;;;;;;;;;;;7.40;71.20;;;;;;5003289;28;88629;-38
2023/03/14 13:42:15;;;;;;;;;;;7.40;71.10;;;;;;5002867;28;88087;-38
2023/03/14 13:44:40;;;;;;;;;;;7.50;71.20;;;;;;5016120;28;88709;-39
2023/03/14 13:47:11;;;;;;;;;;;7.50;71.20;;;;;;5014805;28;90483;-38
2023/03/14 13:49:37;;;;;;;;;;;7.50;71.30;;;;;;5017145;28;87005;-38
2023/03/14 13:52:03;;;;;;;;;;;7.60;71.60;;;;;;5002712;28;88901;-38
2023/03/14 13:54:30;;;;;;;;;;;7.60;72.00;;;;;;5002235;28;89504;-38
2023/03/14 13:57:00;;;;;;;;;;;7.60;71.30;;;;;;5005556;28;87242;-38
2023/03/14 13:59:27;;;;;;;;;;;7.60;71.50;;;;;;5020134;28;89292;-38
2023/03/14 14:01:53;;;;;;;;;;;7.70;71.40;;;;;;5013910;28;88068;-37
2023/03/14 14:04:21;;;;;;;;;;;7.70;71.50;;;;;;5008374;28;88834;-38
2023/03/14 14:06:49;;;;;;;;;;;7.70;71.80;;;;;;5013961;28;89812;-38
2023/03/14 14:09:19;;;;;;;;;;;7.80;71.50;;;;;;5019103;28;87144;-39
2023/03/14 14:12:05;;;;;;;;;;;7.80;71.70;;;;;;5017633;28;89378;-38
2023/03/14 14:14:33;;;;;;;;;;;7.80;71.70;;;;;;5017227;28;89848;-38
2023/03/14 14:16:59;;;;;;;;;;;7.90;71.90;;;;;;5017763;28;87983;-38
2023/03/14 14:19:26;;;;;;;;;;;7.90;71.80;;;;;;5011710;28;88698;-38
2023/03/14 14:21:53;;;;;;;;;;;7.90;72.10;;;;;;5017276;28;87220;-38
2023/03/14 14:24:28;;;;;;;;;;;7.90;71.90;;;;;;5006831;28;89435;-38
2023/03/14 14:26:58;;;;;;;;;;;8.00;72.20;;;;;;5002198;28;87945;-38
2023/03/14 14:29:31;;;;;;;;;;;8.00;72.20;;;;;;5009763;28;86433;-38
2023/03/14 14:32:23;;;;;;;;;;;8.10;72.30;;;;;;5012809;28;88446;-38